createdAt,value
2018-10-11T00:00:01.311Z,20
2018-10-11T00:05:05.888Z,19
2018-10-11T00:10:00.736Z,21
2018-10-11T00:15:01.292Z,20
2018-10-11T00:20:06.233Z,22
2018-10-11T00:25:00.409Z,21
2018-10-11T00:30:01.839Z,20
2018-10-11T00:35:02.111Z,22
2018-10-11T00:40:03.781Z,22
2018-10-11T00:45:00.623Z,21
2018-10-11T00:50:01.944Z,20
2018-10-11T00:55:05.047Z,21
2018-10-11T01:00:07.490Z,22
2018-10-11T01:05:02.164Z,20
2018-10-11T01:10:01.379Z,21
2018-10-11T01:15:04.715Z,22
2018-10-11T01:20:00.944Z,22
2018-10-11T01:25:01.968Z,22
2018-10-11T01:30:04.522Z,21
2018-10-11T01:35:00.803Z,20
2018-10-11T01:40:03.936Z,22
2018-10-11T01:45:01.409Z,21
2018-10-11T01:50:00.812Z,22
2018-10-11T01:55:09.439Z,23
2018-10-11T02:00:39.252Z,21
2018-10-11T02:05:03.922Z,23
2018-10-11T02:10:00.185Z,22
2018-10-11T02:15:01.152Z,22
2018-10-11T02:20:13.125Z,22
2018-10-11T02:25:01.911Z,22
2018-10-11T02:30:01.665Z,22
2018-10-11T02:35:01.242Z,22
2018-10-11T02:40:04.386Z,20
2018-10-11T02:45:01.755Z,22
2018-10-11T02:50:00.313Z,23
2018-10-11T02:55:01.248Z,22
2018-10-11T03:00:05.475Z,22
2018-10-11T03:05:00.473Z,22
2018-10-11T03:10:01.037Z,22
2018-10-11T03:15:00.338Z,22
2018-10-11T03:20:01.564Z,22
2018-10-11T03:25:02.382Z,22
2018-10-11T03:30:02.282Z,22
2018-10-11T03:35:00.518Z,22
2018-10-11T03:40:03.654Z,23
2018-10-11T03:45:02.590Z,22
2018-10-11T03:50:00.273Z,22
2018-10-11T03:55:00.569Z,22
2018-10-11T04:00:03.450Z,23
2018-10-11T04:05:00.079Z,24
2018-10-11T04:10:00.273Z,25
2018-10-11T04:15:02.289Z,22
2018-10-11T04:19:59.928Z,23
2018-10-11T04:25:00.057Z,25
2018-10-11T04:30:04.482Z,25
2018-10-11T04:35:00.218Z,23
2018-10-11T04:40:02.469Z,25
2018-10-11T04:45:09.620Z,24
2018-10-11T04:49:59.830Z,23
2018-10-11T04:55:00.940Z,25
2018-10-11T05:00:00.318Z,24
2018-10-11T05:05:00.440Z,25
2018-10-11T05:10:06.295Z,25
2018-10-11T05:15:00.307Z,24
2018-10-11T05:20:00.394Z,24
2018-10-11T05:25:02.818Z,24
2018-10-11T05:30:00.698Z,24
2018-10-11T05:35:05.087Z,25
2018-10-11T05:40:00.804Z,23
2018-10-11T05:45:07.257Z,24
2018-10-11T05:50:00.093Z,22
2018-10-11T05:55:00.375Z,22
2018-10-11T06:00:05.390Z,22
2018-10-11T06:05:00.159Z,22
2018-10-11T06:10:02.974Z,22
2018-10-11T06:15:00.762Z,23
2018-10-11T06:20:01.947Z,22
2018-10-11T06:25:00.257Z,22
2018-10-11T06:30:01.369Z,22
2018-10-11T06:35:03.648Z,24
2018-10-11T06:39:59.747Z,22
2018-10-11T06:45:00.189Z,24
2018-10-11T06:50:00.563Z,22
2018-10-11T06:55:00.152Z,23
2018-10-11T07:00:05.560Z,23
2018-10-11T07:04:59.970Z,22
2018-10-11T07:10:07.956Z,24
2018-10-11T07:15:00.031Z,22
2018-10-11T07:20:00.491Z,23
2018-10-11T07:25:03.164Z,22
2018-10-11T07:30:01.675Z,23
2018-10-11T07:35:00.171Z,22
2018-10-11T07:40:04.663Z,20
2018-10-11T07:45:01.979Z,20
2018-10-11T08:10:07.651Z,15
2018-10-11T08:15:01.875Z,14
2018-10-11T08:20:02.496Z,12
2018-10-11T08:25:02.006Z,17
2018-10-11T08:30:02.049Z,18
2018-10-11T08:35:02.085Z,19
2018-10-11T08:40:01.695Z,20
2018-10-11T08:45:01.801Z,20
2018-10-11T08:50:01.687Z,20
2018-10-11T08:55:01.826Z,21
2018-10-11T09:00:02.108Z,19
2018-10-11T09:05:01.776Z,20
2018-10-11T09:10:01.654Z,15
2018-10-11T09:15:01.839Z,16
2018-10-11T09:20:02.096Z,16
2018-10-11T09:25:02.004Z,18
2018-10-11T09:30:01.618Z,19
2018-10-11T09:35:01.557Z,18
2018-10-11T09:40:01.595Z,17
2018-10-11T09:45:01.761Z,17
2018-10-11T09:50:01.506Z,16
2018-10-11T09:55:01.490Z,24
2018-10-11T10:00:02.151Z,14
2018-10-11T10:05:01.469Z,14
2018-10-11T10:10:02.062Z,15
2018-10-11T10:15:01.953Z,14
2018-10-11T10:20:02.119Z,13
2018-10-11T10:25:26.205Z,16
2018-10-11T10:30:01.622Z,13
2018-10-11T10:35:01.851Z,12
2018-10-11T10:40:01.915Z,14
2018-10-11T10:45:01.823Z,13
2018-10-11T10:50:01.543Z,14
2018-10-11T10:55:01.655Z,13
2018-10-11T11:00:01.684Z,13
2018-10-11T11:05:01.783Z,15
2018-10-11T11:10:01.769Z,13
2018-10-11T11:15:01.439Z,11
2018-10-11T11:20:02.176Z,12
2018-10-11T11:25:01.933Z,14
2018-10-11T11:30:01.735Z,13
2018-10-11T11:35:01.437Z,12
2018-10-11T11:40:01.416Z,11
2018-10-11T11:45:01.585Z,10
2018-10-11T11:50:01.838Z,11
2018-10-11T11:55:02.237Z,9
2018-10-11T12:00:01.793Z,9
2018-10-11T12:05:01.794Z,9
2018-10-11T12:10:01.446Z,9
2018-10-11T12:15:01.833Z,8
2018-10-11T12:20:01.732Z,9
2018-10-11T12:25:01.353Z,9
2018-10-11T12:30:03.004Z,8
2018-10-11T12:35:01.745Z,7
2018-10-11T12:40:01.700Z,7
2018-10-11T12:45:02.123Z,0
2018-10-11T12:50:01.671Z,8
2018-10-11T12:55:01.208Z,5
2018-10-11T13:00:02.229Z,6
2018-10-11T13:05:01.924Z,5
2018-10-11T13:10:01.859Z,7
2018-10-11T13:15:02.536Z,7
2018-10-11T13:20:02.451Z,7
2018-10-11T13:25:01.754Z,4
2018-10-11T13:30:02.631Z,7
2018-10-11T13:35:01.827Z,3
2018-10-11T13:40:01.569Z,7
2018-10-11T13:45:01.416Z,5
2018-10-11T13:50:01.208Z,0
2018-10-11T13:55:08.122Z,5
2018-10-11T14:00:01.156Z,4
2018-10-11T14:05:01.222Z,5
2018-10-11T14:10:01.575Z,4
2018-10-11T14:15:02.805Z,5
2018-10-11T14:20:01.907Z,5
2018-10-11T14:25:01.521Z,5
2018-10-11T14:30:01.639Z,4
2018-10-11T14:35:01.612Z,4
2018-10-11T14:40:01.500Z,5
2018-10-11T14:45:01.299Z,5
2018-10-11T14:50:01.159Z,3
2018-10-11T14:55:01.357Z,5
2018-10-11T15:00:01.694Z,5
2018-10-11T15:05:01.176Z,5
2018-10-11T15:10:00.949Z,5
2018-10-11T15:15:01.088Z,6
2018-10-11T15:20:01.144Z,4
2018-10-11T15:25:01.181Z,3
2018-10-11T15:30:01.025Z,5
2018-10-11T15:35:01.006Z,4
2018-10-11T15:40:00.954Z,5
2018-10-11T15:45:01.319Z,4
2018-10-11T15:50:01.134Z,5
2018-10-11T15:55:01.040Z,6
2018-10-11T16:00:01.327Z,6
2018-10-11T16:05:01.008Z,6
2018-10-11T16:10:01.091Z,6
2018-10-11T16:15:00.917Z,5
2018-10-11T16:20:00.792Z,5
2018-10-11T16:25:01.064Z,5
2018-10-11T16:30:01.185Z,5
2018-10-11T16:35:00.957Z,6
2018-10-11T16:40:00.769Z,6
2018-10-11T16:45:00.895Z,7
2018-10-11T16:50:00.827Z,6
2018-10-11T16:55:00.875Z,5
2018-10-11T17:00:01.327Z,4
2018-10-11T17:05:00.954Z,4
2018-10-11T17:10:01.040Z,6
2018-10-11T17:15:01.050Z,7
2018-10-11T17:20:00.695Z,6
2018-10-11T17:25:00.953Z,8
2018-10-11T17:30:01.270Z,8
2018-10-11T17:35:01.270Z,8
2018-10-11T17:40:00.905Z,8
2018-10-11T17:45:00.712Z,8
2018-10-11T17:50:00.753Z,8
2018-10-11T17:55:10.656Z,9
2018-10-11T18:00:01.262Z,8
2018-10-11T18:05:01.328Z,11
2018-10-11T18:10:00.853Z,9
2018-10-11T18:15:00.663Z,10
2018-10-11T18:20:00.781Z,11
2018-10-11T18:25:00.818Z,10
2018-10-11T18:30:00.753Z,10
2018-10-11T18:35:00.797Z,10
2018-10-11T18:40:00.954Z,9
2018-10-11T18:45:00.775Z,11
2018-10-11T18:50:00.612Z,9
2018-10-11T18:55:00.855Z,7
2018-10-11T19:00:00.908Z,10
2018-10-11T19:05:00.731Z,8
2018-10-11T19:10:00.912Z,8
2018-10-11T19:15:00.613Z,9
2018-10-11T19:20:01.122Z,9
2018-10-11T19:25:01.019Z,8
2018-10-11T19:30:01.328Z,8
2018-10-11T19:35:00.977Z,8
2018-10-11T19:40:00.956Z,7
2018-10-11T19:45:00.514Z,7
2018-10-11T19:50:00.810Z,8
2018-10-11T19:55:00.850Z,8
2018-10-11T20:00:00.635Z,7
2018-10-11T20:05:00.874Z,7
2018-10-11T20:50:03.329Z,10
2018-10-11T20:55:00.467Z,10
2018-10-11T21:00:00.772Z,11
2018-10-11T21:05:00.381Z,11
2018-10-11T21:10:00.624Z,10
2018-10-11T21:15:00.483Z,8
2018-10-11T21:20:00.575Z,8
2018-10-11T21:25:00.736Z,9
2018-10-11T21:30:00.614Z,12
2018-10-11T21:35:01.926Z,11
2018-10-11T21:40:00.350Z,10
2018-10-11T21:45:00.424Z,11
2018-10-11T21:50:00.551Z,11
2018-10-11T21:55:00.361Z,10
2018-10-11T22:00:00.551Z,10
2018-10-11T22:05:00.323Z,12
2018-10-11T22:10:00.572Z,11
2018-10-11T22:15:00.452Z,10
2018-10-11T22:20:00.516Z,12
2018-10-11T22:25:00.368Z,11
2018-10-11T22:30:00.534Z,11
2018-10-11T22:35:00.379Z,11
2018-10-11T22:40:00.586Z,10
2018-10-11T22:45:00.565Z,10
2018-10-11T22:50:00.486Z,10
2018-10-11T22:55:00.443Z,10
2018-10-11T23:00:00.319Z,9
2018-10-11T23:05:00.684Z,9
2018-10-11T23:10:00.607Z,9
2018-10-11T23:15:00.259Z,10
2018-10-11T23:20:00.363Z,9
2018-10-11T23:25:00.285Z,7
2018-10-11T23:30:00.241Z,8
2018-10-11T23:35:00.435Z,6
2018-10-11T23:40:00.290Z,7
2018-10-11T23:45:00.334Z,7
2018-10-11T23:50:00.158Z,5
2018-10-11T23:55:00.212Z,6
